sensor_id;sensor_type;location;lat;lon;timestamp;P1;durP1;ratioP1;P2;durP2;ratioP2
78925;SDS011;68321;51.276;7.208;2024-02-15T00:00:38;10.43;;;6.35;;
78925;SDS011;68321;51.276;7.208;2024-02-15T00:05:40;8.18;;;4.75;;
78925;SDS011;68321;51.276;7.208;2024-02-15T00:08:08;8.32;;;5.20;;
78925;SDS011;68321;51.276;7.208;2024-02-15T00:10:36;8.20;;;5.25;;
78925;SDS011;68321;51.276;7.208;2024-02-15T00:13:04;6.53;;;5.03;;
78925;SDS011;68321;51.276;7.208;2024-02-15T00:15:34;7.43;;;4.78;;
78925;SDS011;68321;51.276;7.208;2024-02-15T00:18:00;7.18;;;5.28;;
78925;SDS011;68321;51.276;7.208;2024-02-15T00:20:30;8.48;;;4.28;;
78925;SDS011;68321;51.276;7.208;2024-02-15T00:22:59;6.97;;;4.80;;
78925;SDS011;68321;51.276;7.208;2024-02-15T00:25:27;7.25;;;5.10;;
78925;SDS011;68321;51.276;7.208;2024-02-15T00:27:53;7.88;;;4.93;;
78925;SDS011;68321;51.276;7.208;2024-02-15T00:30:20;6.95;;;4.70;;
78925;SDS011;68321;51.276;7.208;2024-02-15T00:32:49;8.95;;;5.13;;
78925;SDS011;68321;51.276;7.208;2024-02-15T00:35:16;9.45;;;5.65;;
78925;SDS011;68321;51.276;7.208;2024-02-15T00:37:51;9.65;;;5.95;;
78925;SDS011;68321;51.276;7.208;2024-02-15T00:40:18;9.70;;;5.85;;
78925;SDS011;68321;51.276;7.208;2024-02-15T00:42:49;8.95;;;5.63;;
78925;SDS011;68321;51.276;7.208;2024-02-15T00:45:14;8.45;;;6.32;;
78925;SDS011;68321;51.276;7.208;2024-02-15T00:47:46;8.70;;;6.22;;
78925;SDS011;68321;51.276;7.208;2024-02-15T00:50:12;7.70;;;5.78;;
78925;SDS011;68321;51.276;7.208;2024-02-15T00:52:40;9.88;;;6.30;;
78925;SDS011;68321;51.276;7.208;2024-02-15T00:55:07;12.57;;;5.55;;
78925;SDS011;68321;51.276;7.208;2024-02-15T00:57:33;10.77;;;6.88;;
78925;SDS011;68321;51.276;7.208;2024-02-15T01:00:01;10.00;;;6.75;;
78925;SDS011;68321;51.276;7.208;2024-02-15T01:02:28;10.27;;;6.30;;
78925;SDS011;68321;51.276;7.208;2024-02-15T01:04:56;9.20;;;6.88;;
78925;SDS011;68321;51.276;7.208;2024-02-15T01:07:23;11.52;;;7.03;;
78925;SDS011;68321;51.276;7.208;2024-02-15T01:09:56;9.73;;;6.63;;
78925;SDS011;68321;51.276;7.208;2024-02-15T01:12:23;16.52;;;6.82;;
78925;SDS011;68321;51.276;7.208;2024-02-15T01:14:49;8.85;;;7.15;;
78925;SDS011;68321;51.276;7.208;2024-02-15T01:17:16;11.50;;;7.22;;
78925;SDS011;68321;51.276;7.208;2024-02-15T01:19:51;14.43;;;8.00;;
78925;SDS011;68321;51.276;7.208;2024-02-15T01:22:19;10.52;;;7.47;;
78925;SDS011;68321;51.276;7.208;2024-02-15T01:24:45;11.13;;;7.18;;
78925;SDS011;68321;51.276;7.208;2024-02-15T01:27:11;12.45;;;8.57;;
78925;SDS011;68321;51.276;7.208;2024-02-15T01:29:36;14.80;;;8.50;;
78925;SDS011;68321;51.276;7.208;2024-02-15T01:32:09;13.98;;;8.52;;
78925;SDS011;68321;51.276;7.208;2024-02-15T01:34:40;10.70;;;7.55;;
78925;SDS011;68321;51.276;7.208;2024-02-15T01:37:09;12.93;;;7.90;;
78925;SDS011;68321;51.276;7.208;2024-02-15T01:39:34;13.27;;;7.97;;
78925;SDS011;68321;51.276;7.208;2024-02-15T01:42:00;14.60;;;7.88;;
78925;SDS011;68321;51.276;7.208;2024-02-15T01:44:31;12.27;;;8.30;;
78925;SDS011;68321;51.276;7.208;2024-02-15T01:46:59;13.38;;;8.30;;
78925;SDS011;68321;51.276;7.208;2024-02-15T01:49:29;12.15;;;8.50;;
78925;SDS011;68321;51.276;7.208;2024-02-15T01:52:02;15.43;;;7.90;;
78925;SDS011;68321;51.276;7.208;2024-02-15T01:54:30;12.30;;;8.57;;
78925;SDS011;68321;51.276;7.208;2024-02-15T01:56:56;13.07;;;7.32;;
78925;SDS011;68321;51.276;7.208;2024-02-15T01:59:23;14.65;;;8.23;;
78925;SDS011;68321;51.276;7.208;2024-02-15T02:01:51;15.82;;;7.65;;
78925;SDS011;68321;51.276;7.208;2024-02-15T02:04:20;12.35;;;8.13;;
78925;SDS011;68321;51.276;7.208;2024-02-15T02:06:46;10.40;;;6.28;;
78925;SDS011;68321;51.276;7.208;2024-02-15T02:09:13;9.57;;;5.90;;
78925;SDS011;68321;51.276;7.208;2024-02-15T02:11:44;11.68;;;5.82;;
78925;SDS011;68321;51.276;7.208;2024-02-15T02:14:10;10.43;;;5.75;;
78925;SDS011;68321;51.276;7.208;2024-02-15T02:16:37;11.35;;;6.88;;
78925;SDS011;68321;51.276;7.208;2024-02-15T02:21:34;12.48;;;5.65;;
78925;SDS011;68321;51.276;7.208;2024-02-15T02:24:04;12.20;;;6.55;;
78925;SDS011;68321;51.276;7.208;2024-02-15T02:26:33;11.57;;;6.07;;
78925;SDS011;68321;51.276;7.208;2024-02-15T02:29:06;10.93;;;6.80;;
78925;SDS011;68321;51.276;7.208;2024-02-15T02:31:35;15.52;;;6.97;;
78925;SDS011;68321;51.276;7.208;2024-02-15T02:34:02;16.30;;;7.50;;
78925;SDS011;68321;51.276;7.208;2024-02-15T02:36:28;17.20;;;7.78;;
78925;SDS011;68321;51.276;7.208;2024-02-15T02:38:59;15.77;;;7.20;;
78925;SDS011;68321;51.276;7.208;2024-02-15T02:41:26;12.93;;;7.70;;
78925;SDS011;68321;51.276;7.208;2024-02-15T02:43:54;14.63;;;8.10;;
78925;SDS011;68321;51.276;7.208;2024-02-15T02:46:23;17.77;;;9.48;;
78925;SDS011;68321;51.276;7.208;2024-02-15T02:51:28;13.20;;;8.70;;
78925;SDS011;68321;51.276;7.208;2024-02-15T02:53:55;15.05;;;9.50;;
78925;SDS011;68321;51.276;7.208;2024-02-15T02:56:22;10.82;;;8.00;;
78925;SDS011;68321;51.276;7.208;2024-02-15T02:58:51;16.58;;;8.93;;
78925;SDS011;68321;51.276;7.208;2024-02-15T03:01:18;21.77;;;10.15;;
78925;SDS011;68321;51.276;7.208;2024-02-15T03:03:48;14.45;;;9.15;;
78925;SDS011;68321;51.276;7.208;2024-02-15T03:06:13;19.95;;;9.93;;
78925;SDS011;68321;51.276;7.208;2024-02-15T03:08:43;12.80;;;8.48;;
78925;SDS011;68321;51.276;7.208;2024-02-15T03:11:14;18.85;;;8.60;;
78925;SDS011;68321;51.276;7.208;2024-02-15T03:13:42;17.27;;;8.85;;
78925;SDS011;68321;51.276;7.208;2024-02-15T03:16:09;19.13;;;9.40;;
78925;SDS011;68321;51.276;7.208;2024-02-15T03:18:36;11.93;;;7.55;;
78925;SDS011;68321;51.276;7.208;2024-02-15T03:21:04;13.73;;;8.40;;
78925;SDS011;68321;51.276;7.208;2024-02-15T03:23:30;11.43;;;7.72;;
78925;SDS011;68321;51.276;7.208;2024-02-15T03:26:07;16.55;;;8.10;;
78925;SDS011;68321;51.276;7.208;2024-02-15T03:28:34;15.35;;;7.97;;
78925;SDS011;68321;51.276;7.208;2024-02-15T03:31:03;17.35;;;8.27;;
78925;SDS011;68321;51.276;7.208;2024-02-15T03:33:35;12.05;;;7.53;;
78925;SDS011;68321;51.276;7.208;2024-02-15T03:36:02;15.27;;;8.70;;
78925;SDS011;68321;51.276;7.208;2024-02-15T03:38:29;15.88;;;8.32;;
78925;SDS011;68321;51.276;7.208;2024-02-15T03:40:58;10.63;;;6.88;;
78925;SDS011;68321;51.276;7.208;2024-02-15T03:43:25;12.18;;;6.82;;
78925;SDS011;68321;51.276;7.208;2024-02-15T03:45:52;9.75;;;7.25;;
78925;SDS011;68321;51.276;7.208;2024-02-15T03:48:18;11.73;;;6.10;;
78925;SDS011;68321;51.276;7.208;2024-02-15T03:50:45;11.80;;;6.05;;
78925;SDS011;68321;51.276;7.208;2024-02-15T03:53:11;15.98;;;5.15;;
78925;SDS011;68321;51.276;7.208;2024-02-15T03:55:39;7.15;;;4.35;;
78925;SDS011;68321;51.276;7.208;2024-02-15T03:58:06;8.02;;;4.50;;
78925;SDS011;68321;51.276;7.208;2024-02-15T04:00:35;7.40;;;4.13;;
78925;SDS011;68321;51.276;7.208;2024-02-15T04:03:05;6.80;;;4.32;;
78925;SDS011;68321;51.276;7.208;2024-02-15T04:05:30;7.70;;;3.97;;
78925;SDS011;68321;51.276;7.208;2024-02-15T04:10:37;6.88;;;3.53;;
78925;SDS011;68321;51.276;7.208;2024-02-15T04:13:03;6.63;;;3.65;;
78925;SDS011;68321;51.276;7.208;2024-02-15T04:15:28;7.18;;;3.80;;
78925;SDS011;68321;51.276;7.208;2024-02-15T04:17:56;7.35;;;3.55;;
78925;SDS011;68321;51.276;7.208;2024-02-15T04:20:24;10.07;;;4.57;;
78925;SDS011;68321;51.276;7.208;2024-02-15T04:22:51;7.95;;;4.38;;
78925;SDS011;68321;51.276;7.208;2024-02-15T04:25:19;6.47;;;3.65;;
78925;SDS011;68321;51.276;7.208;2024-02-15T04:27:49;7.47;;;3.42;;
78925;SDS011;68321;51.276;7.208;2024-02-15T04:30:14;9.00;;;3.58;;
78925;SDS011;68321;51.276;7.208;2024-02-15T04:32:44;7.65;;;3.28;;
78925;SDS011;68321;51.276;7.208;2024-02-15T04:35:10;7.97;;;3.40;;
78925;SDS011;68321;51.276;7.208;2024-02-15T04:37:38;5.22;;;3.85;;
78925;SDS011;68321;51.276;7.208;2024-02-15T04:40:06;7.80;;;3.22;;
78925;SDS011;68321;51.276;7.208;2024-02-15T04:42:37;6.70;;;3.35;;
78925;SDS011;68321;51.276;7.208;2024-02-15T04:45:05;6.05;;;3.05;;
78925;SDS011;68321;51.276;7.208;2024-02-15T04:50:00;5.63;;;3.22;;
78925;SDS011;68321;51.276;7.208;2024-02-15T04:52:25;5.70;;;3.50;;
78925;SDS011;68321;51.276;7.208;2024-02-15T04:54:51;5.90;;;3.42;;
78925;SDS011;68321;51.276;7.208;2024-02-15T04:57:20;6.47;;;3.70;;
78925;SDS011;68321;51.276;7.208;2024-02-15T05:02:26;6.85;;;3.65;;
78925;SDS011;68321;51.276;7.208;2024-02-15T05:04:55;8.88;;;4.03;;
78925;SDS011;68321;51.276;7.208;2024-02-15T05:07:22;8.07;;;3.85;;
78925;SDS011;68321;51.276;7.208;2024-02-15T05:09:49;6.32;;;4.03;;
78925;SDS011;68321;51.276;7.208;2024-02-15T05:12:24;6.80;;;3.60;;
78925;SDS011;68321;51.276;7.208;2024-02-15T05:14:52;9.20;;;3.95;;
78925;SDS011;68321;51.276;7.208;2024-02-15T05:17:18;6.97;;;3.72;;
78925;SDS011;68321;51.276;7.208;2024-02-15T05:19:48;4.78;;;3.50;;
78925;SDS011;68321;51.276;7.208;2024-02-15T05:22:25;6.50;;;3.17;;
78925;SDS011;68321;51.276;7.208;2024-02-15T05:24:56;4.75;;;3.60;;
78925;SDS011;68321;51.276;7.208;2024-02-15T05:27:25;5.35;;;2.92;;
78925;SDS011;68321;51.276;7.208;2024-02-15T05:29:54;7.95;;;2.95;;
78925;SDS011;68321;51.276;7.208;2024-02-15T05:32:23;6.53;;;2.80;;
78925;SDS011;68321;51.276;7.208;2024-02-15T05:34:54;3.50;;;2.45;;
78925;SDS011;68321;51.276;7.208;2024-02-15T05:37:23;5.45;;;2.63;;
78925;SDS011;68321;51.276;7.208;2024-02-15T05:39:51;6.53;;;2.53;;
78925;SDS011;68321;51.276;7.208;2024-02-15T05:42:28;5.22;;;3.05;;
78925;SDS011;68321;51.276;7.208;2024-02-15T05:44:55;5.05;;;2.53;;
78925;SDS011;68321;51.276;7.208;2024-02-15T05:47:39;4.28;;;2.90;;
78925;SDS011;68321;51.276;7.208;2024-02-15T05:52:41;7.78;;;2.72;;
78925;SDS011;68321;51.276;7.208;2024-02-15T05:57:35;7.38;;;2.78;;
78925;SDS011;68321;51.276;7.208;2024-02-15T06:00:02;10.30;;;2.65;;
78925;SDS011;68321;51.276;7.208;2024-02-15T06:02:33;4.53;;;3.20;;
78925;SDS011;68321;51.276;7.208;2024-02-15T06:05:00;6.93;;;2.60;;
78925;SDS011;68321;51.276;7.208;2024-02-15T06:07:30;4.20;;;2.33;;
78925;SDS011;68321;51.276;7.208;2024-02-15T06:10:00;5.88;;;2.75;;
78925;SDS011;68321;51.276;7.208;2024-02-15T06:12:30;3.75;;;2.15;;
78925;SDS011;68321;51.276;7.208;2024-02-15T06:17:41;4.18;;;2.28;;
78925;SDS011;68321;51.276;7.208;2024-02-15T06:20:11;5.88;;;2.55;;
78925;SDS011;68321;51.276;7.208;2024-02-15T06:22:48;6.72;;;2.85;;
78925;SDS011;68321;51.276;7.208;2024-02-15T06:25:17;4.70;;;2.28;;
78925;SDS011;68321;51.276;7.208;2024-02-15T06:27:46;6.57;;;2.63;;
78925;SDS011;68321;51.276;7.208;2024-02-15T06:30:15;10.10;;;2.92;;
78925;SDS011;68321;51.276;7.208;2024-02-15T06:33:00;8.30;;;3.13;;
78925;SDS011;68321;51.276;7.208;2024-02-15T06:35:45;4.47;;;2.60;;
78925;SDS011;68321;51.276;7.208;2024-02-15T06:38:29;5.93;;;2.85;;
78925;SDS011;68321;51.276;7.208;2024-02-15T06:41:14;6.80;;;3.33;;
78925;SDS011;68321;51.276;7.208;2024-02-15T06:43:46;5.30;;;2.28;;
78925;SDS011;68321;51.276;7.208;2024-02-15T06:48:41;7.55;;;2.28;;
78925;SDS011;68321;51.276;7.208;2024-02-15T06:51:17;5.60;;;2.72;;
78925;SDS011;68321;51.276;7.208;2024-02-15T06:53:44;5.82;;;2.55;;
78925;SDS011;68321;51.276;7.208;2024-02-15T06:56:09;13.20;;;4.68;;
78925;SDS011;68321;51.276;7.208;2024-02-15T06:58:37;6.45;;;2.90;;
78925;SDS011;68321;51.276;7.208;2024-02-15T07:01:05;6.15;;;2.70;;
78925;SDS011;68321;51.276;7.208;2024-02-15T07:03:33;5.63;;;2.65;;
78925;SDS011;68321;51.276;7.208;2024-02-15T07:06:01;5.93;;;2.22;;
78925;SDS011;68321;51.276;7.208;2024-02-15T07:08:29;6.70;;;2.60;;
78925;SDS011;68321;51.276;7.208;2024-02-15T07:10:59;5.50;;;2.45;;
78925;SDS011;68321;51.276;7.208;2024-02-15T07:13:24;7.03;;;2.42;;
78925;SDS011;68321;51.276;7.208;2024-02-15T07:15:54;4.47;;;2.22;;
78925;SDS011;68321;51.276;7.208;2024-02-15T07:18:20;7.82;;;2.50;;
78925;SDS011;68321;51.276;7.208;2024-02-15T07:20:50;5.93;;;2.08;;
78925;SDS011;68321;51.276;7.208;2024-02-15T07:23:34;6.03;;;2.20;;
78925;SDS011;68321;51.276;7.208;2024-02-15T07:26:00;6.60;;;2.65;;
78925;SDS011;68321;51.276;7.208;2024-02-15T07:30:58;5.70;;;2.25;;
78925;SDS011;68321;51.276;7.208;2024-02-15T07:33:32;4.30;;;2.25;;
78925;SDS011;68321;51.276;7.208;2024-02-15T07:36:10;6.50;;;2.28;;
78925;SDS011;68321;51.276;7.208;2024-02-15T07:38:37;3.95;;;2.10;;
78925;SDS011;68321;51.276;7.208;2024-02-15T07:41:04;5.55;;;3.35;;
78925;SDS011;68321;51.276;7.208;2024-02-15T07:43:31;8.70;;;2.28;;
78925;SDS011;68321;51.276;7.208;2024-02-15T07:45:58;4.05;;;1.95;;
78925;SDS011;68321;51.276;7.208;2024-02-15T07:48:24;4.85;;;2.00;;
78925;SDS011;68321;51.276;7.208;2024-02-15T07:50:50;7.30;;;2.33;;
78925;SDS011;68321;51.276;7.208;2024-02-15T07:53:17;7.05;;;2.10;;
78925;SDS011;68321;51.276;7.208;2024-02-15T07:55:42;4.40;;;1.95;;
78925;SDS011;68321;51.276;7.208;2024-02-15T07:58:10;5.68;;;2.28;;
78925;SDS011;68321;51.276;7.208;2024-02-15T08:00:37;5.07;;;2.53;;
78925;SDS011;68321;51.276;7.208;2024-02-15T08:03:07;5.50;;;2.58;;
78925;SDS011;68321;51.276;7.208;2024-02-15T08:08:05;8.10;;;2.15;;
78925;SDS011;68321;51.276;7.208;2024-02-15T08:10:33;5.28;;;2.15;;
78925;SDS011;68321;51.276;7.208;2024-02-15T08:13:04;5.38;;;2.65;;
78925;SDS011;68321;51.276;7.208;2024-02-15T08:15:35;9.18;;;2.10;;
78925;SDS011;68321;51.276;7.208;2024-02-15T08:18:04;6.72;;;2.38;;
78925;SDS011;68321;51.276;7.208;2024-02-15T08:20:36;7.07;;;2.00;;
78925;SDS011;68321;51.276;7.208;2024-02-15T08:23:13;3.80;;;1.83;;
78925;SDS011;68321;51.276;7.208;2024-02-15T08:25:38;6.03;;;2.45;;
78925;SDS011;68321;51.276;7.208;2024-02-15T08:28:08;4.82;;;2.50;;
78925;SDS011;68321;51.276;7.208;2024-02-15T08:30:36;6.68;;;2.33;;
78925;SDS011;68321;51.276;7.208;2024-02-15T08:33:02;5.38;;;2.42;;
78925;SDS011;68321;51.276;7.208;2024-02-15T08:35:29;7.07;;;2.58;;
78925;SDS011;68321;51.276;7.208;2024-02-15T08:37:56;3.65;;;1.92;;
78925;SDS011;68321;51.276;7.208;2024-02-15T08:40:25;5.13;;;2.00;;
78925;SDS011;68321;51.276;7.208;2024-02-15T08:43:24;3.70;;;1.70;;
78925;SDS011;68321;51.276;7.208;2024-02-15T08:46:06;5.68;;;2.47;;
78925;SDS011;68321;51.276;7.208;2024-02-15T08:48:35;6.80;;;2.95;;
78925;SDS011;68321;51.276;7.208;2024-02-15T08:51:01;5.40;;;2.05;;
78925;SDS011;68321;51.276;7.208;2024-02-15T08:53:29;8.45;;;2.25;;
78925;SDS011;68321;51.276;7.208;2024-02-15T08:55:55;6.70;;;3.03;;
78925;SDS011;68321;51.276;7.208;2024-02-15T08:58:23;2.78;;;1.75;;
78925;SDS011;68321;51.276;7.208;2024-02-15T09:00:52;5.22;;;2.15;;
78925;SDS011;68321;51.276;7.208;2024-02-15T09:03:21;4.60;;;1.83;;
78925;SDS011;68321;51.276;7.208;2024-02-15T09:05:48;4.18;;;1.73;;
78925;SDS011;68321;51.276;7.208;2024-02-15T09:08:30;5.75;;;1.92;;
78925;SDS011;68321;51.276;7.208;2024-02-15T09:10:58;5.30;;;1.90;;
78925;SDS011;68321;51.276;7.208;2024-02-15T09:13:27;4.47;;;2.28;;
78925;SDS011;68321;51.276;7.208;2024-02-15T09:16:02;5.55;;;2.15;;
78925;SDS011;68321;51.276;7.208;2024-02-15T09:18:35;5.30;;;2.55;;
78925;SDS011;68321;51.276;7.208;2024-02-15T09:21:04;6.55;;;2.55;;
78925;SDS011;68321;51.276;7.208;2024-02-15T09:23:30;6.70;;;2.55;;
78925;SDS011;68321;51.276;7.208;2024-02-15T09:26:00;4.53;;;1.92;;
78925;SDS011;68321;51.276;7.208;2024-02-15T09:28:32;4.40;;;2.10;;
78925;SDS011;68321;51.276;7.208;2024-02-15T09:31:02;5.55;;;1.88;;
78925;SDS011;68321;51.276;7.208;2024-02-15T09:33:30;4.63;;;1.95;;
78925;SDS011;68321;51.276;7.208;2024-02-15T09:41:30;5.10;;;1.80;;
78925;SDS011;68321;51.276;7.208;2024-02-15T09:44:04;4.68;;;1.95;;
78925;SDS011;68321;51.276;7.208;2024-02-15T09:46:35;3.20;;;1.92;;
78925;SDS011;68321;51.276;7.208;2024-02-15T09:49:03;5.25;;;1.80;;
78925;SDS011;68321;51.276;7.208;2024-02-15T09:51:41;6.88;;;2.15;;
78925;SDS011;68321;51.276;7.208;2024-02-15T09:54:10;4.47;;;2.38;;
78925;SDS011;68321;51.276;7.208;2024-02-15T09:56:39;7.35;;;2.22;;
78925;SDS011;68321;51.276;7.208;2024-02-15T09:59:09;6.35;;;2.25;;
78925;SDS011;68321;51.276;7.208;2024-02-15T10:01:37;4.30;;;1.88;;
78925;SDS011;68321;51.276;7.208;2024-02-15T10:06:42;5.30;;;2.03;;
78925;SDS011;68321;51.276;7.208;2024-02-15T10:09:23;3.25;;;1.58;;
78925;SDS011;68321;51.276;7.208;2024-02-15T10:11:54;7.93;;;2.03;;
78925;SDS011;68321;51.276;7.208;2024-02-15T10:14:30;7.00;;;2.22;;
78925;SDS011;68321;51.276;7.208;2024-02-15T10:17:07;8.25;;;2.63;;
78925;SDS011;68321;51.276;7.208;2024-02-15T10:19:38;4.10;;;2.05;;
78925;SDS011;68321;51.276;7.208;2024-02-15T10:22:11;9.32;;;2.28;;
78925;SDS011;68321;51.276;7.208;2024-02-15T10:24:47;5.65;;;1.50;;
78925;SDS011;68321;51.276;7.208;2024-02-15T10:27:13;4.55;;;1.88;;
78925;SDS011;68321;51.276;7.208;2024-02-15T10:30:01;6.53;;;1.98;;
78925;SDS011;68321;51.276;7.208;2024-02-15T10:32:45;3.58;;;1.60;;
78925;SDS011;68321;51.276;7.208;2024-02-15T10:35:20;4.35;;;1.80;;
78925;SDS011;68321;51.276;7.208;2024-02-15T10:37:49;5.80;;;1.90;;
78925;SDS011;68321;51.276;7.208;2024-02-15T10:40:22;8.88;;;2.55;;
78925;SDS011;68321;51.276;7.208;2024-02-15T10:42:50;4.10;;;1.58;;
78925;SDS011;68321;51.276;7.208;2024-02-15T10:45:19;5.47;;;1.60;;
78925;SDS011;68321;51.276;7.208;2024-02-15T10:47:45;2.72;;;1.40;;
78925;SDS011;68321;51.276;7.208;2024-02-15T10:50:23;3.83;;;1.90;;
78925;SDS011;68321;51.276;7.208;2024-02-15T10:52:55;3.38;;;1.60;;
78925;SDS011;68321;51.276;7.208;2024-02-15T10:58:21;5.68;;;1.70;;
78925;SDS011;68321;51.276;7.208;2024-02-15T11:00:51;3.38;;;1.83;;
78925;SDS011;68321;51.276;7.208;2024-02-15T11:03:32;5.72;;;2.03;;
78925;SDS011;68321;51.276;7.208;2024-02-15T11:06:13;7.40;;;1.92;;
78925;SDS011;68321;51.276;7.208;2024-02-15T11:08:47;3.50;;;1.80;;
78925;SDS011;68321;51.276;7.208;2024-02-15T11:11:29;5.07;;;2.30;;
78925;SDS011;68321;51.276;7.208;2024-02-15T11:16:59;7.35;;;2.33;;
78925;SDS011;68321;51.276;7.208;2024-02-15T11:22:08;5.57;;;1.58;;
78925;SDS011;68321;51.276;7.208;2024-02-15T11:24:36;8.52;;;2.10;;
78925;SDS011;68321;51.276;7.208;2024-02-15T11:27:27;4.53;;;1.80;;
78925;SDS011;68321;51.276;7.208;2024-02-15T11:30:00;5.53;;;1.40;;
78925;SDS011;68321;51.276;7.208;2024-02-15T11:35:15;4.28;;;1.73;;
78925;SDS011;68321;51.276;7.208;2024-02-15T11:46:15;2.95;;;1.35;;
78925;SDS011;68321;51.276;7.208;2024-02-15T11:48:46;7.57;;;1.65;;
78925;SDS011;68321;51.276;7.208;2024-02-15T11:51:35;3.90;;;1.42;;
78925;SDS011;68321;51.276;7.208;2024-02-15T11:54:11;3.13;;;1.25;;
78925;SDS011;68321;51.276;7.208;2024-02-15T11:56:50;5.20;;;1.65;;
78925;SDS011;68321;51.276;7.208;2024-02-15T11:59:49;4.93;;;1.40;;
78925;SDS011;68321;51.276;7.208;2024-02-15T12:02:28;5.57;;;1.75;;
78925;SDS011;68321;51.276;7.208;2024-02-15T12:05:18;4.22;;;1.30;;
78925;SDS011;68321;51.276;7.208;2024-02-15T12:08:16;4.30;;;1.70;;
78925;SDS011;68321;51.276;7.208;2024-02-15T12:11:00;4.90;;;2.13;;
78925;SDS011;68321;51.276;7.208;2024-02-15T12:13:52;3.83;;;1.70;;
78925;SDS011;68321;51.276;7.208;2024-02-15T12:16:41;7.78;;;1.70;;
78925;SDS011;68321;51.276;7.208;2024-02-15T12:19:27;3.47;;;1.50;;
78925;SDS011;68321;51.276;7.208;2024-02-15T12:21:53;4.28;;;1.70;;
78925;SDS011;68321;51.276;7.208;2024-02-15T12:24:25;5.88;;;2.10;;
78925;SDS011;68321;51.276;7.208;2024-02-15T12:27:02;6.28;;;1.80;;
78925;SDS011;68321;51.276;7.208;2024-02-15T12:29:32;4.97;;;1.90;;
78925;SDS011;68321;51.276;7.208;2024-02-15T12:34:31;3.95;;;1.42;;
78925;SDS011;68321;51.276;7.208;2024-02-15T12:37:10;2.92;;;1.33;;
78925;SDS011;68321;51.276;7.208;2024-02-15T12:39:43;4.30;;;1.65;;
78925;SDS011;68321;51.276;7.208;2024-02-15T12:42:12;3.90;;;1.67;;
78925;SDS011;68321;51.276;7.208;2024-02-15T12:44:46;6.78;;;1.80;;
78925;SDS011;68321;51.276;7.208;2024-02-15T12:47:21;5.68;;;1.80;;
78925;SDS011;68321;51.276;7.208;2024-02-15T12:49:50;3.03;;;1.52;;
78925;SDS011;68321;51.276;7.208;2024-02-15T12:52:35;5.00;;;1.42;;
78925;SDS011;68321;51.276;7.208;2024-02-15T12:55:10;2.42;;;1.40;;
78925;SDS011;68321;51.276;7.208;2024-02-15T13:00:12;3.78;;;1.40;;
78925;SDS011;68321;51.276;7.208;2024-02-15T13:02:44;5.57;;;1.85;;
78925;SDS011;68321;51.276;7.208;2024-02-15T13:05:14;6.47;;;1.60;;
78925;SDS011;68321;51.276;7.208;2024-02-15T13:10:22;5.82;;;1.70;;
78925;SDS011;68321;51.276;7.208;2024-02-15T13:12:58;9.07;;;1.95;;
78925;SDS011;68321;51.276;7.208;2024-02-15T13:15:26;4.78;;;1.85;;
78925;SDS011;68321;51.276;7.208;2024-02-15T13:17:58;5.95;;;1.77;;
78925;SDS011;68321;51.276;7.208;2024-02-15T13:20:31;5.70;;;2.63;;
78925;SDS011;68321;51.276;7.208;2024-02-15T13:23:03;7.30;;;1.90;;
78925;SDS011;68321;51.276;7.208;2024-02-15T13:25:44;6.38;;;1.50;;
78925;SDS011;68321;51.276;7.208;2024-02-15T13:28:20;4.70;;;1.73;;
78925;SDS011;68321;51.276;7.208;2024-02-15T13:30:53;4.65;;;1.40;;
78925;SDS011;68321;51.276;7.208;2024-02-15T13:35:57;4.60;;;1.13;;
78925;SDS011;68321;51.276;7.208;2024-02-15T13:38:26;4.78;;;1.45;;
78925;SDS011;68321;51.276;7.208;2024-02-15T13:40:56;3.30;;;1.58;;
78925;SDS011;68321;51.276;7.208;2024-02-15T13:43:30;6.55;;;1.85;;
78925;SDS011;68321;51.276;7.208;2024-02-15T13:45:58;3.22;;;1.38;;
78925;SDS011;68321;51.276;7.208;2024-02-15T13:48:29;4.40;;;1.88;;
78925;SDS011;68321;51.276;7.208;2024-02-15T13:53:37;4.55;;;1.73;;
78925;SDS011;68321;51.276;7.208;2024-02-15T13:56:08;3.17;;;1.25;;
78925;SDS011;68321;51.276;7.208;2024-02-15T13:58:44;4.18;;;1.20;;
78925;SDS011;68321;51.276;7.208;2024-02-15T14:01:27;5.40;;;2.05;;
78925;SDS011;68321;51.276;7.208;2024-02-15T14:03:54;4.28;;;1.67;;
78925;SDS011;68321;51.276;7.208;2024-02-15T14:06:20;4.60;;;1.35;;
78925;SDS011;68321;51.276;7.208;2024-02-15T14:08:46;5.53;;;1.77;;
78925;SDS011;68321;51.276;7.208;2024-02-15T14:11:14;5.15;;;1.95;;
78925;SDS011;68321;51.276;7.208;2024-02-15T14:13:40;3.80;;;1.23;;
78925;SDS011;68321;51.276;7.208;2024-02-15T14:16:08;3.65;;;1.70;;
78925;SDS011;68321;51.276;7.208;2024-02-15T14:18:37;6.50;;;1.95;;
78925;SDS011;68321;51.276;7.208;2024-02-15T14:21:04;5.82;;;1.60;;
78925;SDS011;68321;51.276;7.208;2024-02-15T14:23:37;4.63;;;1.85;;
78925;SDS011;68321;51.276;7.208;2024-02-15T14:26:08;3.67;;;1.55;;
78925;SDS011;68321;51.276;7.208;2024-02-15T14:28:35;3.80;;;1.50;;
78925;SDS011;68321;51.276;7.208;2024-02-15T14:31:07;3.67;;;1.50;;
78925;SDS011;68321;51.276;7.208;2024-02-15T14:33:51;4.03;;;1.90;;
78925;SDS011;68321;51.276;7.208;2024-02-15T14:36:17;3.30;;;1.30;;
78925;SDS011;68321;51.276;7.208;2024-02-15T14:38:44;3.10;;;1.27;;
78925;SDS011;68321;51.276;7.208;2024-02-15T14:41:12;4.95;;;1.45;;
78925;SDS011;68321;51.276;7.208;2024-02-15T14:43:40;2.30;;;1.50;;
78925;SDS011;68321;51.276;7.208;2024-02-15T14:46:15;4.22;;;1.60;;
78925;SDS011;68321;51.276;7.208;2024-02-15T14:48:41;4.22;;;1.55;;
78925;SDS011;68321;51.276;7.208;2024-02-15T14:51:08;3.67;;;1.48;;
78925;SDS011;68321;51.276;7.208;2024-02-15T14:53:35;3.97;;;1.58;;
78925;SDS011;68321;51.276;7.208;2024-02-15T14:56:01;2.80;;;2.03;;
78925;SDS011;68321;51.276;7.208;2024-02-15T15:00:57;3.50;;;1.58;;
78925;SDS011;68321;51.276;7.208;2024-02-15T15:03:23;2.70;;;1.42;;
78925;SDS011;68321;51.276;7.208;2024-02-15T15:05:53;6.32;;;1.65;;
78925;SDS011;68321;51.276;7.208;2024-02-15T15:08:38;3.22;;;1.35;;
78925;SDS011;68321;51.276;7.208;2024-02-15T15:11:22;4.50;;;1.70;;
78925;SDS011;68321;51.276;7.208;2024-02-15T15:14:08;3.55;;;1.38;;
78925;SDS011;68321;51.276;7.208;2024-02-15T15:16:42;3.45;;;1.70;;
78925;SDS011;68321;51.276;7.208;2024-02-15T15:19:08;6.22;;;2.00;;
78925;SDS011;68321;51.276;7.208;2024-02-15T15:21:36;6.53;;;1.83;;
78925;SDS011;68321;51.276;7.208;2024-02-15T15:24:02;4.07;;;1.50;;
78925;SDS011;68321;51.276;7.208;2024-02-15T15:26:32;4.07;;;1.50;;
78925;SDS011;68321;51.276;7.208;2024-02-15T15:28:58;3.72;;;1.42;;
78925;SDS011;68321;51.276;7.208;2024-02-15T15:31:24;6.80;;;1.75;;
78925;SDS011;68321;51.276;7.208;2024-02-15T15:33:50;5.05;;;1.63;;
78925;SDS011;68321;51.276;7.208;2024-02-15T15:36:17;4.45;;;2.10;;
78925;SDS011;68321;51.276;7.208;2024-02-15T15:38:45;4.57;;;1.48;;
78925;SDS011;68321;51.276;7.208;2024-02-15T15:41:19;2.17;;;1.20;;
78925;SDS011;68321;51.276;7.208;2024-02-15T15:44:03;4.78;;;1.65;;
78925;SDS011;68321;51.276;7.208;2024-02-15T15:46:30;4.80;;;1.63;;
78925;SDS011;68321;51.276;7.208;2024-02-15T15:51:24;4.93;;;1.63;;
78925;SDS011;68321;51.276;7.208;2024-02-15T15:53:49;3.50;;;1.70;;
78925;SDS011;68321;51.276;7.208;2024-02-15T15:56:16;3.22;;;1.60;;
78925;SDS011;68321;51.276;7.208;2024-02-15T15:58:42;3.70;;;1.33;;
78925;SDS011;68321;51.276;7.208;2024-02-15T16:01:11;4.13;;;1.50;;
78925;SDS011;68321;51.276;7.208;2024-02-15T16:03:38;5.30;;;1.67;;
78925;SDS011;68321;51.276;7.208;2024-02-15T16:06:10;3.30;;;1.98;;
78925;SDS011;68321;51.276;7.208;2024-02-15T16:08:37;3.15;;;1.70;;
78925;SDS011;68321;51.276;7.208;2024-02-15T16:11:03;4.18;;;1.73;;
78925;SDS011;68321;51.276;7.208;2024-02-15T16:13:31;4.35;;;1.67;;
78925;SDS011;68321;51.276;7.208;2024-02-15T16:15:57;3.95;;;1.85;;
78925;SDS011;68321;51.276;7.208;2024-02-15T16:18:25;3.70;;;1.80;;
78925;SDS011;68321;51.276;7.208;2024-02-15T16:20:54;3.97;;;1.90;;